Time;durP1;ratioP1;P1;durP2;ratioP2;P2;SDS_P1;SDS_P2;PMS_P1;PMS_P2;Temp;Humidity;BMP_temperature;BMP_pressure;BME280_temperature;BME280_humidity;BME280_pressure;Samples;Min_cycle;Max_cycle;Signal;HPM_P1;HPM_P2
2022/11/15 05:30:16;;;;;;;2.28;1.55;;;12.90;85.10;;;;;;5956355;23;20033;-81
2022/11/15 05:32:42;;;;;;;5.10;1.08;;;13.00;85.20;;;;;;4918712;29;20036;-80
2022/11/15 05:35:20;;;;;;;5.50;1.27;;;12.90;85.10;;;;;;4920998;29;20024;-78
2022/11/15 05:37:46;;;;;;;7.55;1.17;;;13.00;85.30;;;;;;4920924;29;20032;-78
2022/11/15 05:40:11;;;;;;;6.03;0.73;;;13.00;85.30;;;;;;4920474;29;20024;-79
2022/11/15 05:42:37;;;;;;;5.40;1.25;;;13.00;85.50;;;;;;4919929;29;20028;-79
2022/11/15 05:45:06;;;;;;;4.32;1.05;;;12.90;85.60;;;;;;4920664;29;20096;-80
2022/11/15 05:47:33;;;;;;;4.25;1.17;;;12.90;85.70;;;;;;4903868;29;20036;-76
2022/11/15 05:49:59;;;;;;;7.30;1.13;;;12.90;85.80;;;;;;4921562;29;20087;-75
2022/11/15 05:52:30;;;;;;;2.05;1.10;;;12.90;86.00;;;;;;4920142;29;20044;-78
2022/11/15 05:54:57;;;;;;;6.90;1.30;;;12.90;86.00;;;;;;4922011;29;20079;-81
2022/11/15 05:57:24;;;;;;;4.00;1.02;;;12.90;85.90;;;;;;4921491;29;20797;-79
2022/11/15 05:59:50;;;;;;;2.35;1.00;;;13.00;85.80;;;;;;4920741;29;20063;-79
2022/11/15 06:02:15;;;;;;;4.72;1.27;;;13.00;85.90;;;;;;4903267;29;20040;-81
2022/11/15 06:04:41;;;;;;;6.53;1.27;;;13.00;85.80;;;;;;4918445;29;20103;-78
2022/11/15 06:07:07;;;;;;;5.20;0.85;;;13.00;85.80;;;;;;4927955;29;20047;-78
2022/11/15 06:09:32;;;;;;;5.57;1.20;;;13.00;85.70;;;;;;4920927;29;20440;-77
2022/11/15 06:11:58;;;;;;;2.28;0.95;;;12.90;86.00;;;;;;4910693;29;20068;-77
2022/11/15 06:14:23;;;;;;;2.72;0.70;;;13.00;86.00;;;;;;4897469;29;20032;-77
2022/11/15 06:16:49;;;;;;;2.78;1.20;;;13.00;86.10;;;;;;4908360;29;20032;-77
2022/11/15 06:19:15;;;;;;;6.25;1.35;;;13.00;86.30;;;;;;4905506;29;20051;-78
2022/11/15 06:21:40;;;;;;;2.35;1.10;;;12.90;86.50;;;;;;4921422;29;20032;-77
2022/11/15 06:24:06;;;;;;;5.35;1.15;;;13.00;86.40;;;;;;4916416;29;20032;-83
2022/11/15 06:26:34;;;;;;;3.45;1.40;;;13.00;86.40;;;;;;4910473;29;20110;-84
2022/11/15 06:29:02;;;;;;;3.15;1.00;;;12.90;86.70;;;;;;4922473;29;20059;-85
2022/11/15 06:31:27;;;;;;;3.03;1.65;;;13.00;86.50;;;;;;4926477;29;20060;-86
2022/11/15 06:33:53;;;;;;;3.83;1.10;;;13.00;86.30;;;;;;4921866;29;20491;-84
2022/11/15 06:36:19;;;;;;;3.58;1.38;;;13.00;86.60;;;;;;4902832;29;20036;-84
2022/11/15 06:38:45;;;;;;;7.78;1.45;;;13.00;86.60;;;;;;4919673;29;20024;-83
2022/11/15 06:41:11;;;;;;;2.30;1.48;;;13.00;86.70;;;;;;4919951;29;20044;-83
2022/11/15 06:43:40;;;;;;;2.90;1.33;;;13.00;86.70;;;;;;4920344;29;20066;-84
2022/11/15 06:46:06;;;;;;;3.15;1.30;;;13.00;87.00;;;;;;4903787;29;20032;-82
2022/11/15 06:48:33;;;;;;;6.15;1.67;;;12.90;87.10;;;;;;4903491;29;20039;-85
2022/11/15 06:51:00;;;;;;;4.57;1.55;;;12.90;87.60;;;;;;4903636;29;20095;-85
2022/11/15 06:53:27;;;;;;;3.65;1.40;;;12.90;87.80;;;;;;4890555;29;20032;-86
2022/11/15 06:55:53;;;;;;;5.30;1.80;;;12.90;87.70;;;;;;4895141;29;20103;-86
2022/11/15 06:58:21;;;;;;;4.28;1.30;;;12.90;88.00;;;;;;4901733;29;20522;-84
2022/11/15 07:00:46;;;;;;;5.15;2.10;;;12.90;88.20;;;;;;4902216;29;20084;-86
2022/11/15 07:03:12;;;;;;;4.88;1.52;;;12.90;88.30;;;;;;4900747;29;20020;-85
2022/11/15 07:05:37;;;;;;;4.45;1.80;;;12.90;88.40;;;;;;4920548;29;20103;-85
2022/11/15 07:08:04;;;;;;;4.72;2.10;;;12.90;88.50;;;;;;4903868;29;20063;-84
2022/11/15 07:10:30;;;;;;;6.88;2.03;;;13.00;88.40;;;;;;4908106;29;20083;-86
2022/11/15 07:12:56;;;;;;;5.15;1.85;;;13.00;88.50;;;;;;4915194;29;20036;-85
2022/11/15 07:15:25;;;;;;;8.68;1.90;;;13.00;88.40;;;;;;4900267;29;20056;-85
2022/11/15 07:17:51;;;;;;;6.25;2.00;;;13.10;88.30;;;;;;4901653;29;20460;-84
2022/11/15 07:20:18;;;;;;;6.93;1.77;;;13.00;88.50;;;;;;4900818;29;20028;-85
2022/11/15 07:22:47;;;;;;;8.25;2.30;;;13.10;88.50;;;;;;4900186;29;20095;-85
2022/11/15 07:25:13;;;;;;;6.88;1.90;;;13.10;88.30;;;;;;4906989;29;20032;-86
2022/11/15 07:27:39;;;;;;;4.40;1.42;;;13.20;88.20;;;;;;4920184;29;20054;-85
2022/11/15 07:30:05;;;;;;;6.18;2.00;;;13.20;88.10;;;;;;4920040;29;20398;-84
2022/11/15 07:32:31;;;;;;;3.20;1.25;;;13.10;87.90;;;;;;4919400;29;20516;-85
2022/11/15 07:34:56;;;;;;;3.45;1.35;;;13.10;88.20;;;;;;4903168;29;20031;-86
2022/11/15 07:37:22;;;;;;;3.55;1.52;;;13.20;88.10;;;;;;4909534;29;20409;-84
2022/11/15 07:39:48;;;;;;;6.97;1.65;;;13.10;88.20;;;;;;4901092;29;20047;-84
2022/11/15 07:44:57;;;;;;;3.75;1.33;;;13.10;88.30;;;;;;4901219;29;20088;-85
2022/11/15 07:47:23;;;;;;;3.30;1.67;;;13.10;88.30;;;;;;4907952;29;20032;-84
2022/11/15 07:49:49;;;;;;;3.10;1.38;;;13.10;88.40;;;;;;4920005;29;20036;-83
2022/11/15 07:52:14;;;;;;;5.72;1.77;;;13.10;88.30;;;;;;4893697;29;20033;-85
2022/11/15 07:54:40;;;;;;;5.35;1.45;;;13.20;88.50;;;;;;4884218;29;20033;-86
2022/11/15 07:57:34;;;;;;;2.83;1.42;;;13.10;88.40;;;;;;4894111;29;20040;-84
2022/11/15 07:59:59;;;;;;;5.80;1.75;;;13.10;88.50;;;;;;4918678;29;20035;-85
2022/11/15 08:02:24;;;;;;;2.92;1.30;;;13.10;88.50;;;;;;4919505;29;20484;-85
2022/11/15 08:04:50;;;;;;;2.78;1.30;;;13.10;88.60;;;;;;4919643;29;20032;-86
2022/11/15 08:07:16;;;;;;;4.47;1.50;;;13.20;88.80;;;;;;4919757;29;20040;-85
2022/11/15 08:09:41;;;;;;;4.53;1.48;;;13.20;88.70;;;;;;4902201;29;20055;-83
2022/11/15 08:12:07;;;;;;;3.85;1.52;;;13.10;88.60;;;;;;4909239;29;20037;-86
2022/11/15 08:14:36;;;;;;;7.40;1.75;;;13.10;88.90;;;;;;4900817;29;20089;-85
2022/11/15 08:17:01;;;;;;;2.70;1.40;;;13.20;88.90;;;;;;4883964;29;20064;-85
2022/11/15 08:19:27;;;;;;;4.00;1.30;;;13.20;88.90;;;;;;4917948;29;20457;-84
2022/11/15 08:21:53;;;;;;;2.90;1.25;;;13.20;88.90;;;;;;4898910;29;20036;-85
2022/11/15 08:24:18;;;;;;;1.83;1.15;;;13.20;89.00;;;;;;4899220;29;20044;-86
2022/11/15 08:26:44;;;;;;;2.08;1.45;;;13.20;89.10;;;;;;4900721;29;20036;-87
2022/11/15 08:29:10;;;;;;;2.53;1.27;;;13.20;89.30;;;;;;4884210;29;20382;-86
2022/11/15 08:31:36;;;;;;;3.15;1.42;;;13.20;89.30;;;;;;4900483;29;20053;-85
2022/11/15 08:34:03;;;;;;;5.35;1.00;;;13.20;89.30;;;;;;4916170;29;20039;-86
2022/11/15 08:36:29;;;;;;;1.63;0.90;;;13.20;89.40;;;;;;4919426;29;20111;-86
2022/11/15 08:38:54;;;;;;;2.55;1.23;;;13.30;89.30;;;;;;4919593;29;20062;-85
2022/11/15 08:41:27;;;;;;;2.17;1.15;;;13.30;89.30;;;;;;4901136;29;20024;-85
2022/11/15 08:43:53;;;;;;;1.45;0.90;;;13.30;89.30;;;;;;4883640;29;20027;-86
2022/11/15 08:46:18;;;;;;;0.98;0.70;;;13.30;89.20;;;;;;4899348;29;20052;-86
2022/11/15 08:48:44;;;;;;;3.70;0.98;;;13.30;89.30;;;;;;4883740;29;20041;-86
2022/11/15 08:51:10;;;;;;;2.55;0.95;;;13.30;89.30;;;;;;4899069;29;20612;-86
2022/11/15 08:53:36;;;;;;;2.83;1.10;;;13.30;89.30;;;;;;4915007;29;20029;-84
2022/11/15 08:56:02;;;;;;;1.40;0.98;;;13.40;89.20;;;;;;4907173;29;20036;-86
2022/11/15 08:58:28;;;;;;;2.15;1.13;;;13.40;89.30;;;;;;4902263;29;20034;-85
2022/11/15 09:00:54;;;;;;;3.78;1.20;;;13.50;89.30;;;;;;4919293;29;20024;-86
2022/11/15 09:03:20;;;;;;;5.20;1.00;;;13.50;89.30;;;;;;4901803;29;20028;-86
2022/11/15 09:05:45;;;;;;;2.45;0.93;;;13.50;89.20;;;;;;4919170;29;20106;-85
2022/11/15 09:08:12;;;;;;;1.77;0.98;;;13.50;89.10;;;;;;4919108;29;20056;-86
2022/11/15 09:10:38;;;;;;;4.43;1.00;;;13.60;89.20;;;;;;4897230;29;20032;-86
2022/11/15 09:13:04;;;;;;;2.22;0.90;;;13.60;89.10;;;;;;4903284;29;20049;-85
2022/11/15 09:15:29;;;;;;;1.52;0.95;;;13.60;89.00;;;;;;4886759;29;20029;-85
2022/11/15 09:17:59;;;;;;;1.88;0.75;;;13.70;89.00;;;;;;4904132;29;20031;-86
2022/11/15 09:20:25;;;;;;;1.45;0.80;;;13.70;89.00;;;;;;4904029;29;20028;-85
2022/11/15 09:22:50;;;;;;;4.47;0.80;;;13.70;88.90;;;;;;4886941;29;20032;-88
2022/11/15 09:25:16;;;;;;;4.07;1.77;;;13.80;88.60;;;;;;4886917;29;20028;-87
2022/11/15 09:27:42;;;;;;;3.53;1.50;;;13.80;88.60;;;;;;4908135;29;20047;-85
2022/11/15 09:30:08;;;;;;;1.23;0.50;;;13.80;88.70;;;;;;4922106;29;20111;-85
2022/11/15 09:32:33;;;;;;;1.48;0.70;;;13.80;88.60;;;;;;4922254;29;20131;-86
2022/11/15 09:34:59;;;;;;;4.28;1.58;;;13.80;88.60;;;;;;4905395;29;20119;-85
2022/11/15 09:37:25;;;;;;;2.25;0.88;;;13.80;88.70;;;;;;4901622;29;20044;-85
2022/11/15 09:39:50;;;;;;;4.25;1.00;;;13.90;88.50;;;;;;4903406;29;20024;-87
2022/11/15 09:42:29;;;;;;;6.10;1.73;;;14.00;88.60;;;;;;4906712;29;20028;-84
2022/11/15 09:45:26;;;;;;;1.80;1.02;;;14.00;88.50;;;;;;4905007;29;20020;-87
2022/11/15 09:47:51;;;;;;;3.10;1.10;;;14.00;88.30;;;;;;4901435;29;20095;-86
2022/11/15 09:50:38;;;;;;;3.90;1.45;;;14.00;88.40;;;;;;4886504;29;20036;-87
2022/11/15 09:53:04;;;;;;;3.65;1.23;;;14.00;88.20;;;;;;4913191;29;20038;-89
2022/11/15 09:55:48;;;;;;;4.25;1.20;;;14.00;88.40;;;;;;4920694;29;20488;-87
2022/11/15 09:58:57;;;;;;;2.33;1.38;;;14.00;88.30;;;;;;4920601;29;20055;-87
2022/11/15 10:01:44;;;;;;;2.95;1.08;;;14.00;88.40;;;;;;4920742;29;20050;-88
2022/11/15 10:04:10;;;;;;;7.35;1.40;;;14.00;88.30;;;;;;4919453;29;20033;-86
2022/11/15 10:06:42;;;;;;;2.92;1.10;;;14.00;88.40;;;;;;4903856;29;20100;-85
2022/11/15 10:09:29;;;;;;;3.45;1.38;;;14.00;88.60;;;;;;4921899;29;20032;-87
2022/11/15 10:11:54;;;;;;;3.17;1.20;;;14.00;88.50;;;;;;4907167;29;20036;-86
2022/11/15 10:14:23;;;;;;;4.40;1.55;;;14.00;88.60;;;;;;4898201;29;20039;-87
2022/11/15 10:17:06;;;;;;;6.38;1.67;;;14.10;88.50;;;;;;4904611;29;20393;-87
2022/11/15 10:20:09;;;;;;;2.63;1.20;;;14.10;88.50;;;;;;4921267;29;20120;-88
2022/11/15 10:22:49;;;;;;;3.15;1.20;;;14.10;88.70;;;;;;4921023;29;20032;-87
2022/11/15 10:25:30;;;;;;;2.33;0.98;;;14.10;88.60;;;;;;4885546;29;20025;-87
2022/11/15 10:28:13;;;;;;;3.15;1.30;;;14.10;88.60;;;;;;4885486;29;20028;-87
2022/11/15 10:30:44;;;;;;;1.88;1.15;;;14.10;88.70;;;;;;4891712;29;20048;-85
2022/11/15 10:33:33;;;;;;;4.38;1.17;;;14.10;88.70;;;;;;4902420;29;20040;-87
2022/11/15 10:36:25;;;;;;;5.13;1.42;;;14.00;88.70;;;;;;4902165;29;20029;-85
2022/11/15 10:38:54;;;;;;;3.65;1.60;;;14.10;88.80;;;;;;4900472;29;20040;-84
2022/11/15 10:41:26;;;;;;;4.97;1.80;;;14.20;88.70;;;;;;4885451;29;20397;-85
2022/11/15 10:44:29;;;;;;;5.22;1.45;;;14.20;88.60;;;;;;4885579;29;20033;-87
2022/11/15 10:46:54;;;;;;;2.63;1.48;;;14.30;88.50;;;;;;4889187;29;20040;-86
2022/11/15 10:49:31;;;;;;;4.18;1.30;;;14.40;88.40;;;;;;4902084;29;20047;-86
2022/11/15 10:52:22;;;;;;;4.35;1.48;;;14.50;88.30;;;;;;4886923;29;20056;-86
2022/11/15 10:54:52;;;;;;;7.38;1.27;;;14.50;88.40;;;;;;4903824;29;20035;-86
2022/11/15 10:57:19;;;;;;;;;;;14.70;88.20;;;;;;4926969;29;20023;-85
2022/11/15 11:00:28;;;;;;;5.57;1.30;;;14.80;88.00;;;;;;4924739;29;20261;-86
2022/11/15 11:02:56;;;;;;;9.07;1.58;;;14.90;87.80;;;;;;4892909;29;20044;-86
2022/11/15 11:05:27;;;;;;;3.30;1.17;;;14.90;87.60;;;;;;4885125;29;20039;-84
2022/11/15 11:07:59;;;;;;;;;;;14.90;87.50;;;;;;4885489;29;20497;-85
2022/11/15 11:10:25;;;;;;;2.90;1.30;;;15.10;87.20;;;;;;4914278;29;19911;-83
2022/11/15 11:12:50;;;;;;;6.82;0.90;;;15.10;87.40;;;;;;4903560;29;20112;-85
2022/11/15 11:15:17;;;;;;;3.80;1.15;;;15.00;87.00;;;;;;4920460;29;20088;-87
2022/11/15 11:18:01;;;;;;;6.38;1.58;;;15.00;86.90;;;;;;4919848;29;20088;-85
2022/11/15 11:20:34;;;;;;;8.45;2.42;;;15.10;87.00;;;;;;4919019;29;20032;-84
2022/11/15 11:23:17;;;;;;;5.80;1.45;;;15.30;86.70;;;;;;4884707;29;20021;-86
2022/11/15 11:26:07;;;;;;;7.25;1.30;;;15.30;86.50;;;;;;4901441;29;20029;-86
2022/11/15 11:29:02;;;;;;;4.25;1.55;;;15.20;86.20;;;;;;4920274;29;20047;-85
2022/11/15 11:31:47;;;;;;;3.72;1.05;;;15.20;86.20;;;;;;4902834;29;20068;-86
2022/11/15 11:34:31;;;;;;;8.95;1.23;;;15.20;85.90;;;;;;4919602;29;20028;-86
2022/11/15 11:37:02;;;;;;;13.75;1.50;;;15.30;86.10;;;;;;4902931;29;20074;-85
2022/11/15 11:39:44;;;;;;;6.35;2.08;;;15.50;85.80;;;;;;4896361;29;20020;-86
2022/11/15 11:42:28;;;;;;;3.92;1.10;;;15.70;85.70;;;;;;4900006;29;20393;-85
2022/11/15 11:45:13;;;;;;;5.85;1.30;;;15.80;85.40;;;;;;4900999;29;20020;-84
2022/11/15 11:47:53;;;;;;;5.88;1.27;;;16.00;84.90;;;;;;4901051;29;20036;-85
2022/11/15 11:50:22;;;;;;;6.05;1.60;;;16.10;84.80;;;;;;4905212;29;20412;-85
2022/11/15 11:53:03;;;;;;;11.25;1.63;;;16.20;84.10;;;;;;4904945;29;20036;-87
2022/11/15 11:55:43;;;;;;;5.82;1.20;;;16.20;84.10;;;;;;4900991;29;20441;-85
2022/11/15 11:58:27;;;;;;;13.00;2.10;;;16.40;84.20;;;;;;4918303;29;20115;-85
2022/11/15 12:01:13;;;;;;;9.25;1.08;;;16.70;83.70;;;;;;4919132;29;20069;-85
2022/11/15 12:04:41;;;;;;;6.80;1.45;;;16.80;83.30;;;;;;4902865;29;20931;-85
2022/11/15 12:07:21;;;;;;;7.00;1.58;;;16.80;83.10;;;;;;4862832;29;20132;-84
2022/11/15 12:09:56;;;;;;;;;;;16.70;82.10;;;;;;4884645;29;20029;-87
2022/11/15 12:12:44;;;;;;;6.03;1.50;;;16.30;81.00;;;;;;4914810;29;19915;-86
2022/11/15 12:15:10;;;;;;;9.80;1.00;;;16.20;81.50;;;;;;4902658;29;20032;-85
2022/11/15 12:17:38;;;;;;;4.82;0.90;;;15.90;81.80;;;;;;4902306;29;20026;-85
2022/11/15 12:20:27;;;;;;;7.22;1.63;;;15.80;81.80;;;;;;4919265;29;20040;-85
2022/11/15 12:23:28;;;;;;;6.53;1.10;;;15.80;81.60;;;;;;4918960;29;20107;-86
2022/11/15 12:26:37;;;;;;;2.55;0.65;;;15.80;81.50;;;;;;4879203;29;20036;-86
2022/11/15 12:29:16;;;;;;;7.90;1.48;;;15.60;81.00;;;;;;4841138;29;20057;-87
2022/11/15 12:31:48;;;;;;;6.85;1.13;;;15.70;81.50;;;;;;4914893;29;20159;-85
2022/11/15 12:34:44;;;;;;;14.00;1.83;;;15.80;81.90;;;;;;4902158;29;20393;-84
2022/11/15 12:37:38;;;;;;;9.30;1.00;;;15.80;81.50;;;;;;4883730;29;20068;-84
2022/11/15 12:40:18;;;;;;;7.65;1.08;;;15.90;81.40;;;;;;4900739;29;20028;-86
2022/11/15 12:43:23;;;;;;;12.57;1.55;;;16.00;81.30;;;;;;4910738;29;20201;-86
2022/11/15 12:45:49;;;;;;;9.35;1.77;;;16.00;80.20;;;;;;4902107;29;20095;-85
2022/11/15 12:48:17;;;;;;;6.07;1.23;;;16.00;79.50;;;;;;4921831;29;20504;-86
2022/11/15 12:50:53;;;;;;;6.88;0.90;;;16.00;79.20;;;;;;4923097;29;20444;-86
2022/11/15 12:53:26;;;;;;;9.57;2.10;;;16.10;78.70;;;;;;4893658;29;20104;-84
2022/11/15 12:56:04;;;;;;;3.78;1.13;;;16.00;77.00;;;;;;4894225;29;20060;-86
2022/11/15 12:58:48;;;;;;;4.85;1.23;;;15.90;78.10;;;;;;4905840;29;20028;-83
2022/11/15 13:01:37;;;;;;;6.22;1.63;;;16.00;77.80;;;;;;4922538;29;20028;-84
2022/11/15 13:04:25;;;;;;;6.50;1.13;;;16.00;77.70;;;;;;4923064;29;20029;-83
2022/11/15 13:06:58;;;;;;;4.47;1.00;;;16.00;75.80;;;;;;4922784;29;20032;-86
2022/11/15 13:09:36;;;;;;;6.82;1.17;;;15.90;75.70;;;;;;4922637;29;20047;-85
2022/11/15 13:12:27;;;;;;;7.68;1.13;;;15.80;76.40;;;;;;4898880;29;20036;-85
2022/11/15 13:15:11;;;;;;;2.80;1.38;;;15.80;77.10;;;;;;4902701;29;20036;-85
2022/11/15 13:17:45;;;;;;;6.22;1.20;;;15.80;77.10;;;;;;4902611;29;20043;-85
2022/11/15 13:20:16;;;;;;;9.23;1.42;;;15.80;76.90;;;;;;4903756;29;20116;-85
2022/11/15 13:23:00;;;;;;;3.20;0.88;;;15.80;76.60;;;;;;4916807;29;20020;-84
2022/11/15 13:26:03;;;;;;;7.20;1.10;;;15.80;77.10;;;;;;4922474;29;20043;-86
2022/11/15 13:28:37;;;;;;;2.75;0.80;;;15.80;76.60;;;;;;4900997;29;20127;-85
2022/11/15 13:31:19;;;;;;;2.42;0.60;;;15.90;76.40;;;;;;4903554;29;20063;-84
2022/11/15 13:33:45;;;;;;;2.92;0.93;;;15.80;76.00;;;;;;4901836;29;20028;-85
2022/11/15 13:36:16;;;;;;;7.18;1.52;;;15.90;76.10;;;;;;4903248;29;20509;-84
2022/11/15 13:38:43;;;;;;;6.50;0.80;;;15.90;76.30;;;;;;4886965;29;20056;-85
2022/11/15 13:41:20;;;;;;;6.82;1.23;;;15.90;77.10;;;;;;4902293;29;20028;-85
2022/11/15 13:43:48;;;;;;;4.65;1.42;;;15.90;76.10;;;;;;4886226;29;20025;-84
2022/11/15 13:46:22;;;;;;;2.35;0.65;;;15.90;76.40;;;;;;4901451;29;20040;-83
2022/11/15 13:48:54;;;;;;;3.15;0.70;;;15.80;75.90;;;;;;4896010;29;20078;-84
2022/11/15 13:51:42;;;;;;;6.47;1.13;;;15.80;76.40;;;;;;4904957;29;20443;-85
2022/11/15 13:54:35;;;;;;;6.82;1.13;;;15.80;77.10;;;;;;4896954;29;20028;-85
2022/11/15 13:57:16;;;;;;;8.55;1.40;;;15.80;78.50;;;;;;4900876;29;20063;-85
2022/11/15 13:59:55;;;;;;;5.07;1.15;;;15.70;79.70;;;;;;4884978;29;20076;-86
2022/11/15 14:02:29;;;;;;;6.88;1.23;;;15.60;80.60;;;;;;4917060;29;20560;-84
2022/11/15 14:04:59;;;;;;;7.60;2.30;;;15.50;81.50;;;;;;4905751;29;20180;-84
2022/11/15 14:07:28;;;;;;;4.30;1.15;;;15.50;81.60;;;;;;4903430;29;20111;-84
2022/11/15 14:09:54;;;;;;;6.30;1.25;;;15.50;81.80;;;;;;4886095;29;20020;-84
2022/11/15 14:12:30;;;;;;;7.80;1.33;;;15.70;81.80;;;;;;4903420;29;20039;-85
2022/11/15 14:14:57;;;;;;;8.18;1.27;;;15.80;82.30;;;;;;4904392;29;20058;-84
2022/11/15 14:17:28;;;;;;;4.55;1.00;;;15.80;81.80;;;;;;4904180;29;20048;-85
2022/11/15 14:19:55;;;;;;;7.07;1.23;;;15.80;81.10;;;;;;4921435;29;20030;-85
2022/11/15 14:22:25;;;;;;;3.90;0.93;;;15.70;81.50;;;;;;4921490;29;20503;-83
2022/11/15 14:25:10;;;;;;;;;;;15.60;81.10;;;;;;4892062;29;20036;-85
2022/11/15 14:27:36;;;;;;;5.28;0.80;;;15.60;81.20;;;;;;4902395;29;20359;-85
2022/11/15 14:30:02;;;;;;;4.75;0.90;;;15.50;79.70;;;;;;4902270;29;20055;-84
2022/11/15 14:32:36;;;;;;;2.67;1.08;;;15.50;79.40;;;;;;4885476;29;20052;-86
2022/11/15 14:35:03;;;;;;;3.78;0.98;;;15.50;77.50;;;;;;4902232;29;20040;-86
2022/11/15 14:37:34;;;;;;;2.38;0.80;;;15.50;78.20;;;;;;4901151;29;20056;-85
2022/11/15 14:40:02;;;;;;;3.88;0.60;;;15.50;78.20;;;;;;4885542;29;20039;-84
2022/11/15 14:42:27;;;;;;;5.57;0.95;;;15.40;77.10;;;;;;4910279;29;20090;-82
2022/11/15 14:44:53;;;;;;;3.63;0.77;;;15.30;76.20;;;;;;4903784;29;20024;-85
2022/11/15 14:47:19;;;;;;;5.05;0.70;;;15.40;76.30;;;;;;4904311;29;20032;-86
2022/11/15 14:49:44;;;;;;;3.90;0.90;;;15.30;75.50;;;;;;4903619;29;20032;-84
2022/11/15 14:52:27;;;;;;;5.30;0.88;;;15.30;76.50;;;;;;4920970;29;20055;-84
2022/11/15 14:54:53;;;;;;;3.53;0.73;;;15.20;75.70;;;;;;4904048;29;20039;-85
2022/11/15 14:57:19;;;;;;;4.03;0.82;;;15.10;76.30;;;;;;4900221;29;20047;-83
2022/11/15 14:59:45;;;;;;;3.58;0.90;;;15.00;76.20;;;;;;4900548;29;20033;-84
2022/11/15 15:02:22;;;;;;;3.45;0.90;;;15.00;75.90;;;;;;4902073;29;20389;-84
2022/11/15 15:04:48;;;;;;;8.65;1.10;;;14.90;76.90;;;;;;4908380;29;20120;-84
2022/11/15 15:07:14;;;;;;;5.82;1.55;;;14.80;76.80;;;;;;4919525;29;20484;-83
2022/11/15 15:09:40;;;;;;;4.88;0.90;;;14.90;77.10;;;;;;4920170;29;20038;-83
2022/11/15 15:12:21;;;;;;;2.33;0.85;;;14.90;76.50;;;;;;4903683;29;20067;-83
2022/11/15 15:14:49;;;;;;;5.38;0.82;;;15.00;77.10;;;;;;4900054;29;20041;-83
2022/11/15 15:17:16;;;;;;;4.40;0.70;;;15.10;75.90;;;;;;4901459;29;20029;-85
2022/11/15 15:19:42;;;;;;;3.67;0.95;;;15.10;75.40;;;;;;4901929;29;20036;-84
2022/11/15 15:22:16;;;;;;;4.40;0.80;;;15.10;74.20;;;;;;4884748;29;20117;-84
2022/11/15 15:24:43;;;;;;;3.72;0.95;;;15.10;74.00;;;;;;4901444;29;20103;-85
2022/11/15 15:27:09;;;;;;;5.22;0.70;;;15.00;71.60;;;;;;4915743;29;20034;-84
2022/11/15 15:29:35;;;;;;;0.60;0.40;;;15.00;71.90;;;;;;4903286;29;20039;-85
2022/11/15 15:32:00;;;;;;;3.60;0.80;;;14.90;72.20;;;;;;4919761;29;20047;-85
2022/11/15 15:34:26;;;;;;;0.82;0.47;;;14.90;72.80;;;;;;4901900;29;20028;-84
2022/11/15 15:37:24;;;;;;;4.63;0.85;;;15.00;72.70;;;;;;4903775;29;20028;-84
2022/11/15 15:39:56;;;;;;;1.83;0.73;;;14.90;72.80;;;;;;4895689;29;20060;-83
2022/11/15 15:42:22;;;;;;;0.90;0.50;;;14.80;72.60;;;;;;4901407;29;20559;-86
2022/11/15 15:44:49;;;;;;;2.25;0.85;;;14.80;73.10;;;;;;4918159;29;20111;-86
2022/11/15 15:47:22;;;;;;;3.83;0.60;;;14.80;73.10;;;;;;4900779;29;20441;-86
2022/11/15 15:49:49;;;;;;;3.88;0.70;;;14.70;72.50;;;;;;4912988;29;20489;-85
2022/11/15 15:52:15;;;;;;;3.92;0.90;;;14.60;73.70;;;;;;4899077;29;20060;-85
2022/11/15 15:54:41;;;;;;;3.40;0.88;;;14.60;73.70;;;;;;4916002;29;20075;-85
2022/11/15 15:57:10;;;;;;;3.00;0.90;;;14.60;73.50;;;;;;4897744;29;20122;-85
2022/11/15 15:59:37;;;;;;;3.05;0.82;;;14.50;73.70;;;;;;4883580;29;20052;-84
2022/11/15 16:02:03;;;;;;;5.50;1.10;;;14.50;73.50;;;;;;4914427;29;20043;-85
2022/11/15 16:04:29;;;;;;;6.30;1.10;;;14.50;74.40;;;;;;4919585;29;20060;-85
2022/11/15 16:07:02;;;;;;;2.85;0.85;;;14.40;74.70;;;;;;4915320;29;20456;-85
2022/11/15 16:12:12;;;;;;;4.18;0.77;;;14.40;75.60;;;;;;4917708;29;20416;-85
2022/11/15 16:14:37;;;;;;;1.98;0.80;;;14.30;75.70;;;;;;4916473;29;20036;-86
2022/11/15 16:17:03;;;;;;;5.55;1.00;;;14.30;76.80;;;;;;4901473;29;20075;-83
2022/11/15 16:19:29;;;;;;;1.80;0.90;;;14.30;76.40;;;;;;4900373;29;20059;-79
2022/11/15 16:21:55;;;;;;;7.07;1.00;;;14.20;76.40;;;;;;4916786;29;20035;-81
2022/11/15 16:24:22;;;;;;;6.00;0.95;;;14.20;76.10;;;;;;4900296;29;20028;-81
2022/11/15 16:26:48;;;;;;;3.95;1.05;;;14.10;76.40;;;;;;4917631;29;20047;-82
2022/11/15 16:29:14;;;;;;;4.22;1.13;;;14.00;76.20;;;;;;4917086;29;20114;-82
2022/11/15 16:31:40;;;;;;;3.47;1.10;;;14.00;76.60;;;;;;4918100;29;20080;-88
2022/11/15 16:34:06;;;;;;;4.10;1.02;;;13.90;76.90;;;;;;4917403;29;20043;-87
2022/11/15 16:36:34;;;;;;;3.28;0.90;;;13.90;76.20;;;;;;4917270;29;20084;-87
2022/11/15 16:39:03;;;;;;;1.60;0.93;;;13.90;76.80;;;;;;4903682;29;20064;-88
2022/11/15 16:41:29;;;;;;;3.83;1.23;;;13.80;76.90;;;;;;4918132;29;20020;-87
2022/11/15 16:43:55;;;;;;;4.95;1.58;;;13.80;76.30;;;;;;4919952;29;20028;-87
2022/11/15 16:46:25;;;;;;;8.10;1.48;;;13.80;76.70;;;;;;4913773;29;20036;-86
2022/11/15 16:48:59;;;;;;;2.45;1.02;;;13.80;76.60;;;;;;4916958;29;20028;-82
2022/11/15 16:51:25;;;;;;;3.85;1.33;;;13.70;76.80;;;;;;4931764;29;20047;-85
2022/11/15 16:53:51;;;;;;;5.43;1.10;;;13.70;76.50;;;;;;4904545;29;20887;-84
2022/11/15 16:56:26;;;;;;;3.80;1.52;;;13.70;76.90;;;;;;4919322;29;20038;-80
2022/11/15 16:58:53;;;;;;;9.70;1.73;;;13.70;76.60;;;;;;4919274;29;20028;-81
2022/11/15 17:01:34;;;;;;;6.55;1.55;;;13.60;77.10;;;;;;4916659;29;20028;-80
2022/11/15 17:04:11;;;;;;;4.25;1.02;;;13.60;77.00;;;;;;4919528;29;20020;-81
2022/11/15 17:06:38;;;;;;;7.22;2.35;;;13.60;76.70;;;;;;4900458;29;20045;-86
2022/11/15 17:09:04;;;;;;;3.25;1.35;;;13.60;77.40;;;;;;4894526;29;20088;-83
2022/11/15 17:11:29;;;;;;;6.45;1.73;;;13.60;77.30;;;;;;4918347;29;20036;-78
2022/11/15 17:13:58;;;;;;;10.70;1.98;;;13.50;77.10;;;;;;4902574;29;20115;-82
2022/11/15 17:16:25;;;;;;;7.25;1.60;;;13.50;76.50;;;;;;4917102;29;20048;-78
2022/11/15 17:18:51;;;;;;;4.57;1.70;;;13.50;77.00;;;;;;4919080;29;20032;-79
2022/11/15 17:21:20;;;;;;;7.20;1.70;;;13.40;77.30;;;;;;4901465;29;20489;-86
2022/11/15 17:23:46;;;;;;;7.40;2.03;;;13.40;77.10;;;;;;4903871;29;20024;-85
2022/11/15 17:26:14;;;;;;;3.50;1.63;;;13.40;77.20;;;;;;4901685;29;20063;-85
2022/11/15 17:28:53;;;;;;;8.32;1.65;;;13.30;77.00;;;;;;4895768;29;20048;-80
2022/11/15 17:31:18;;;;;;;6.55;1.85;;;13.30;77.40;;;;;;4898605;29;20060;-81
2022/11/15 17:33:44;;;;;;;5.13;2.22;;;13.30;77.20;;;;;;4918888;29;20043;-78
2022/11/15 17:36:11;;;;;;;6.35;1.80;;;13.30;77.50;;;;;;4922123;29;20035;-83
2022/11/15 17:38:37;;;;;;;11.68;2.38;;;13.30;77.70;;;;;;4906484;29;20064;-80
2022/11/15 17:41:11;;;;;;;4.50;2.33;;;13.20;77.80;;;;;;4922202;29;20408;-86
2022/11/15 17:43:37;;;;;;;7.28;3.35;;;13.20;78.30;;;;;;4898127;29;20040;-84
2022/11/15 17:46:06;;;;;;;8.15;4.68;;;13.10;78.40;;;;;;4902306;29;20036;-79
2022/11/15 17:48:32;;;;;;;11.15;4.28;;;13.20;78.80;;;;;;4902355;29;20123;-80
2022/11/15 17:51:01;;;;;;;17.20;5.72;;;13.10;78.30;;;;;;4920483;29;20032;-83
2022/11/15 17:53:31;;;;;;;23.52;10.98;;;13.10;78.50;;;;;;4921084;29;20043;-80
2022/11/15 17:56:04;;;;;;;21.67;8.85;;;13.00;78.00;;;;;;4897107;29;20032;-84
2022/11/15 17:58:31;;;;;;;13.32;6.25;;;13.00;78.50;;;;;;4896640;29;20021;-79
2022/11/15 18:01:18;;;;;;;12.68;6.53;;;12.90;78.20;;;;;;4898255;29;20032;-91
2022/11/15 18:03:44;;;;;;;19.20;7.32;;;13.00;78.30;;;;;;4904728;29;20064;-80
2022/11/15 18:06:10;;;;;;;19.33;7.35;;;12.90;78.40;;;;;;4916373;29;20035;-80
2022/11/15 18:08:54;;;;;;;12.85;6.25;;;12.90;78.50;;;;;;4915776;29;20577;-81
2022/11/15 18:11:23;;;;;;;12.80;6.88;;;12.90;78.80;;;;;;4920130;29;20036;-84
2022/11/15 18:13:52;;;;;;;11.88;6.03;;;12.90;78.20;;;;;;4921085;29;20120;-83
2022/11/15 18:16:20;;;;;;;16.65;5.90;;;12.80;78.60;;;;;;4924263;29;20028;-89
2022/11/15 18:18:45;;;;;;;17.27;6.38;;;12.80;78.30;;;;;;4904639;29;20145;-88
2022/11/15 18:21:22;;;;;;;14.13;4.88;;;12.80;78.60;;;;;;4929392;29;20059;-90
2022/11/15 18:23:51;;;;;;;12.27;4.97;;;12.80;78.70;;;;;;4914271;29;20040;-86
2022/11/15 18:26:17;;;;;;;12.97;5.20;;;12.80;78.20;;;;;;4908574;29;20024;-87
2022/11/15 18:28:45;;;;;;;10.57;4.03;;;12.80;78.70;;;;;;4904139;29;20047;-81
2022/11/15 18:31:34;;;;;;;19.58;5.75;;;12.80;78.40;;;;;;4919347;29;20059;-81
2022/11/15 18:34:00;;;;;;;11.10;4.35;;;12.90;78.00;;;;;;4904148;29;20025;-78
2022/11/15 18:36:28;;;;;;;13.25;5.70;;;12.90;78.50;;;;;;4915400;29;20036;-79
2022/11/15 18:38:55;;;;;;;9.20;4.00;;;12.90;78.30;;;;;;4912380;29;20031;-79
2022/11/15 18:41:24;;;;;;;7.40;3.53;;;12.90;77.50;;;;;;4897439;29;20032;-82
2022/11/15 18:43:51;;;;;;;8.98;3.90;;;12.80;78.10;;;;;;4912074;29;20027;-75
2022/11/15 18:46:19;;;;;;;11.48;6.22;;;12.80;77.80;;;;;;4920241;29;20032;-82